METAR Data
IDs: Format: Raw Decoded Include TAF

Data at: 0833 UTC 07 Apr 2020

METAR for:KCJR (Culpeper Rgnl, VA, US)
Text:KCJR 070815Z AUTO 00000KT 10SM CLR 08/05 A2998 RMK AO2 T00800054
Temperature: 8.0°C ( 46°F)
Dewpoint: 5.4°C ( 42°F) [RH = 84%]
Pressure (altimeter):29.98 inches Hg (1015.3 mb)
Winds:calm
Visibility:10 or more sm (16+ km)
Ceiling:at least 12,000 feet AGL
Clouds:sky clear below 12,000 feet AGL
QC Flag:automated observation with no human augmentation